Time;durP1;ratioP1;P1;durP2;ratioP2;P2;SDS_P1;SDS_P2;PMS_P1;PMS_P2;Temp;Humidity;BMP_temperature;BMP_pressure;BME280_temperature;BME280_humidity;BME280_pressure;Samples;Min_cycle;Max_cycle;Signal;HPM_P1;HPM_P2
2022/12/20 00:02:21;;;;;;;7.63;6.18;;;;;;;0.12;100.00;100334.56;5068649;28;20636;-61
2022/12/20 00:04:46;;;;;;;8.57;5.78;;;;;;;0.33;100.00;100395.75;5052487;28;20215;-61
2022/12/20 00:07:12;;;;;;;10.57;6.18;;;;;;;0.26;100.00;100342.25;5052517;28;20691;-61
2022/12/20 00:09:37;;;;;;;9.68;6.10;;;;;;;0.08;100.00;100312.47;5052491;28;20192;-61
2022/12/20 00:12:03;;;;;;;10.73;6.68;;;;;;;0.62;100.00;100394.13;5052458;28;20701;-61
2022/12/20 00:14:28;;;;;;;8.98;6.22;;;;;;;0.34;100.00;100318.50;5052947;28;20537;-61
2022/12/20 00:16:53;;;;;;;9.43;5.80;;;;;;;0.60;100.00;100355.06;5070097;28;20627;-61
2022/12/20 00:19:19;;;;;;;13.00;6.07;;;;;;;0.86;100.00;100394.19;5070283;28;20192;-61
2022/12/20 00:21:44;;;;;;;10.00;5.90;;;;;;;1.07;100.00;100399.28;5070966;28;20221;-61
2022/12/20 00:24:10;;;;;;;8.10;5.70;;;;;;;1.07;100.00;100376.34;5070047;28;20173;-61
2022/12/20 00:26:36;;;;;;;8.40;6.22;;;;;;;0.51;100.00;100263.38;5070398;28;20280;-62
2022/12/20 00:29:04;;;;;;;9.60;5.63;;;;;;;1.16;100.00;100372.94;5069903;28;20185;-61
2022/12/20 00:31:30;;;;;;;10.40;6.18;;;;;;;0.89;100.00;100299.91;5070210;28;20205;-61
2022/12/20 00:33:57;;;;;;;10.32;6.18;;;;;;;1.22;100.00;100389.13;5070233;28;20184;-61
2022/12/20 00:36:24;;;;;;;9.73;6.45;;;;;;;1.07;100.00;100368.69;5070100;28;20320;-61
2022/12/20 00:38:53;;;;;;;8.98;6.53;;;;;;;0.55;100.00;100270.19;5069859;28;20184;-61
2022/12/20 00:41:21;;;;;;;10.00;6.07;;;;;;;1.07;100.00;100368.69;5069741;28;20196;-61
2022/12/20 00:43:48;;;;;;;10.82;6.32;;;;;;;0.53;100.00;100251.50;5069838;28;20318;-61
2022/12/20 00:46:15;;;;;;;6.65;5.20;;;;;;;0.55;100.00;100256.59;5070379;28;20267;-61
2022/12/20 00:48:41;;;;;;;8.65;5.80;;;;;;;0.71;100.00;100293.97;5054930;28;20695;-61
2022/12/20 00:51:12;;;;;;;7.68;5.72;;;;;;;1.15;100.00;100341.53;5052047;28;20272;-61
2022/12/20 00:53:38;;;;;;;10.27;6.30;;;;;;;0.67;100.00;100300.75;5052416;28;20192;-61
2022/12/20 00:56:05;;;;;;;9.75;5.50;;;;;;;1.01;100.00;100355.97;5051924;28;20731;-61
2022/12/20 00:58:36;;;;;;;9.88;6.00;;;;;;;0.92;100.00;100338.13;5069920;28;20338;-61
2022/12/20 01:01:02;;;;;;;11.23;6.20;;;;;;;0.99;100.00;100354.28;5050227;28;20193;-61
2022/12/20 01:03:28;;;;;;;9.02;6.22;;;;;;;0.84;100.00;100310.94;5049800;28;20189;-61
2022/12/20 01:05:56;;;;;;;12.75;7.05;;;;;;;1.16;100.00;100345.78;5050029;28;20196;-61
2022/12/20 01:08:23;;;;;;;8.50;6.18;;;;;;;1.24;100.00;100353.44;5049990;28;20739;-61
2022/12/20 01:11:10;;;;;;;10.13;6.82;;;;;;;1.29;100.00;100338.97;5049654;28;20699;-61
2022/12/20 01:13:38;;;;;;;11.30;6.93;;;;;;;0.79;100.00;100243.84;5049829;28;20224;-61
2022/12/20 01:16:09;;;;;;;15.32;6.97;;;;;;;0.93;100.00;100282.91;5049870;28;20228;-61
2022/12/20 01:18:34;;;;;;;11.30;7.00;;;;;;;1.39;100.00;100351.72;5050060;28;20190;-61
2022/12/20 01:21:02;;;;;;;8.07;6.18;;;;;;;1.15;100.00;100290.56;5050077;28;20265;-61
2022/12/20 01:23:28;;;;;;;10.00;6.75;;;;;;;1.63;100.00;100345.72;5049416;28;20178;-61
2022/12/20 01:25:54;;;;;;;8.27;6.43;;;;;;;1.14;100.00;100260.81;5049417;28;20647;-61
2022/12/20 01:28:19;;;;;;;11.10;7.30;;;;;;;1.37;100.00;100282.03;5049256;28;20673;-61
2022/12/20 01:30:45;;;;;;;12.93;7.18;;;;;;;1.31;100.00;100289.69;5049175;28;20255;-61
2022/12/20 01:33:10;;;;;;;11.50;7.38;;;;;;;1.54;100.00;100330.44;5052827;28;20630;-61
2022/12/20 01:35:35;;;;;;;10.57;7.20;;;;;;;1.10;100.00;100255.69;5054974;28;20383;-62
2022/12/20 01:38:01;;;;;;;12.98;7.85;;;;;;;1.67;100.00;100327.84;5054975;28;20173;-61
2022/12/20 01:40:26;;;;;;;12.60;8.20;;;;;;;1.17;100.00;100263.34;5055134;28;20182;-61
2022/12/20 01:42:52;;;;;;;11.20;7.30;;;;;;;0.78;100.00;100209.03;5055096;28;20181;-61
2022/12/20 01:45:25;;;;;;;14.05;7.78;;;;;;;1.29;100.00;100319.41;5055059;28;20181;-61
2022/12/20 01:47:51;;;;;;;12.30;7.47;;;;;;;0.74;100.00;100282.06;5055371;28;20189;-61
2022/12/20 01:50:17;;;;;;;12.90;6.97;;;;;;;0.71;100.00;100291.41;5055543;28;20181;-61
2022/12/20 01:52:45;;;;;;;13.15;6.65;;;;;;;0.47;100.00;100223.47;5055245;28;20185;-61
2022/12/20 01:55:13;;;;;;;12.15;7.22;;;;;;;0.82;100.00;100272.72;5054823;28;20293;-61
2022/12/20 01:57:44;;;;;;;11.95;7.35;;;;;;;0.32;100.00;100210.75;5055410;28;20196;-61
2022/12/20 02:00:10;;;;;;;10.00;7.43;;;;;;;0.12;100.00;100196.31;5055380;28;20174;-61
2022/12/20 02:02:36;;;;;;;11.77;7.35;;;;;;;0.56;100.00;100302.44;5054755;28;20196;-61
2022/12/20 02:05:02;;;;;;;11.18;7.00;;;;;;;-0.07;100.00;100195.41;5072748;28;20208;-61
2022/12/20 02:07:30;;;;;;;11.65;6.68;;;;;;;0.69;100.00;100291.41;5072869;28;20189;-61
2022/12/20 02:09:58;;;;;;;8.38;6.30;;;;;;;0.55;100.00;100290.56;5072841;28;20181;-61
2022/12/20 02:12:27;;;;;;;9.90;6.85;;;;;;;0.19;100.00;100295.56;5072317;28;20302;-61
2022/12/20 02:15:10;;;;;;;14.45;7.65;;;;;;;0.14;100.00;100306.59;5072588;28;20260;-61
2022/12/20 02:17:57;;;;;;;11.65;7.07;;;;;;;-0.03;100.00;100306.53;5072844;28;20177;-61
2022/12/20 02:20:31;;;;;;;10.25;6.75;;;;;;;0.00;100.00;100303.97;5072660;28;20220;-61
2022/12/20 02:23:26;;;;;;;11.48;7.18;;;;;;;-0.18;100.00;100267.44;5072428;28;20180;-61
2022/12/20 02:26:29;;;;;;;9.60;6.80;;;;;;;-0.22;100.00;100292.03;5072510;28;20259;-61
2022/12/20 02:29:21;;;;;;;10.55;7.13;;;;;;;-0.22;100.00;100281.84;5072531;28;20230;-61
2022/12/20 02:32:08;;;;;;;11.23;6.40;;;;;;;-0.13;100.00;100290.38;5072222;28;20314;-61
2022/12/20 02:34:36;;;;;;;10.90;7.43;;;;;;;-0.41;100.00;100235.97;5071710;28;20191;-61
2022/12/20 02:37:02;;;;;;;10.23;6.95;;;;;;;-0.74;100.00;100176.53;5055552;28;20726;-61
2022/12/20 02:39:29;;;;;;;10.20;7.07;;;;;;;-0.32;100.00;100227.53;5054083;28;20178;-61
2022/12/20 02:42:08;;;;;;;11.65;7.43;;;;;;;-0.40;100.00;100188.53;5054045;28;20231;-61
2022/12/20 02:47:32;;;;;;;10.98;7.90;;;;;;;0.13;100.00;100231.91;5054230;28;20691;-61
2022/12/20 02:49:58;;;;;;;10.32;6.45;;;;;;;0.03;100.00;100282.78;5052287;28;20189;-61
2022/12/20 02:52:29;;;;;;;11.30;7.38;;;;;;;-0.28;100.00;100218.25;5051940;28;20186;-61
2022/12/20 02:54:56;;;;;;;10.77;7.55;;;;;;;-0.26;100.00;100213.16;5051672;28;20186;-60
2022/12/20 02:57:30;;;;;;;11.32;7.88;;;;;;;-0.23;100.00;100217.41;5051701;28;20194;-61
2022/12/20 03:00:01;;;;;;;11.07;7.82;;;;;;;0.17;100.00;100291.31;5051583;28;20235;-61
2022/12/20 03:02:27;;;;;;;11.65;7.57;;;;;;;0.06;100.00;100291.28;5051851;28;20213;-60
2022/12/20 03:04:54;;;;;;;11.80;8.07;;;;;;;-1.04;100.00;100166.22;5051650;28;20193;-61
2022/12/20 03:07:20;;;;;;;14.77;8.75;;;;;;;-1.26;100.00;100169.47;5051211;28;20711;-60
2022/12/20 03:09:45;;;;;;;11.82;8.48;;;;;;;-0.56;100.00;100268.13;5051216;28;20193;-61
2022/12/20 03:12:12;;;;;;;13.70;8.70;;;;;;;-1.16;100.00;100191.56;5051664;28;20182;-61
2022/12/20 03:14:39;;;;;;;13.80;8.25;;;;;;;-0.81;100.00;100215.47;5051098;28;20193;-61
2022/12/20 03:17:05;;;;;;;13.90;8.70;;;;;;;-0.44;100.00;100222.41;5051036;28;20280;-61
2022/12/20 03:19:31;;;;;;;15.13;8.25;;;;;;;-1.15;100.00;100167.84;5051540;28;20182;-61
2022/12/20 03:21:57;;;;;;;13.95;7.57;;;;;;;-0.99;100.00;100162.84;5053561;28;20196;-60
2022/12/20 03:24:22;;;;;;;11.90;7.32;;;;;;;-0.53;100.00;100273.22;5053231;28;20174;-60
2022/12/20 03:26:48;;;;;;;9.90;7.53;;;;;;;-0.69;100.00;100215.53;5053104;28;20174;-61
2022/12/20 03:29:13;;;;;;;12.65;8.45;;;;;;;-0.64;100.00;100201.16;5053143;28;20178;-61
2022/12/20 03:31:39;;;;;;;13.32;8.23;;;;;;;-0.75;100.00;100185.00;5053687;28;20232;-60
2022/12/20 03:34:05;;;;;;;11.80;8.13;;;;;;;-0.18;100.00;100269.16;5053335;28;20610;-61
2022/12/20 03:36:30;;;;;;;10.27;6.93;;;;;;;-0.33;100.00;100264.00;5053235;28;20749;-61
2022/12/20 03:38:56;;;;;;;12.50;7.40;;;;;;;-0.78;100.00;100241.75;5052966;28;20210;-61
2022/12/20 03:41:22;;;;;;;11.40;6.97;;;;;;;-0.65;100.00;100268.91;5052621;28;20220;-60
2022/12/20 03:43:48;;;;;;;9.95;7.65;;;;;;;-0.60;100.00;100284.22;5052843;28;20170;-61
2022/12/20 03:46:14;;;;;;;11.98;6.80;;;;;;;-1.16;100.00;100166.16;5052848;28;20639;-61
2022/12/20 03:48:40;;;;;;;11.30;7.40;;;;;;;-0.54;100.00;100289.34;5052512;28;20180;-61
2022/12/20 03:51:05;;;;;;;10.35;6.82;;;;;;;-0.78;100.00;100243.44;5050503;28;20193;-61
2022/12/20 03:53:31;;;;;;;11.45;7.57;;;;;;;-0.78;100.00;100297.66;5050846;28;20177;-61
2022/12/20 03:55:57;;;;;;;11.00;6.95;;;;;;;-1.14;100.00;100225.41;5050166;28;20244;-61
2022/12/20 03:58:22;;;;;;;9.80;6.82;;;;;;;-1.09;100.00;100250.03;5050313;28;20170;-61
2022/12/20 04:00:48;;;;;;;13.25;7.65;;;;;;;-0.91;100.00;100290.78;5050351;28;20216;-60
2022/12/20 04:03:13;;;;;;;10.63;7.43;;;;;;;-1.27;100.00;100209.28;5050540;28;20263;-61
2022/12/20 04:05:39;;;;;;;12.68;7.75;;;;;;;-0.87;100.00;100251.88;5050293;28;20376;-60
2022/12/20 04:08:04;;;;;;;10.40;7.72;;;;;;;-0.87;100.00;100215.44;5050464;28;20177;-61
2022/12/20 04:10:30;;;;;;;11.10;7.88;;;;;;;-1.07;100.00;100191.63;5050141;28;20655;-61
2022/12/20 04:12:55;;;;;;;16.15;13.32;;;;;;;-0.28;100.00;100297.06;5050442;28;20178;-61
2022/12/20 04:15:21;;;;;;;13.48;9.10;;;;;;;-0.09;100.00;100270.03;5050020;28;20202;-60
2022/12/20 04:17:46;;;;;;;16.75;8.98;;;;;;;0.06;100.00;100270.09;5050287;28;20189;-61
2022/12/20 04:20:18;;;;;;;12.40;8.75;;;;;;;0.05;100.00;100286.19;5050014;28;20636;-61
2022/12/20 04:22:49;;;;;;;12.93;8.52;;;;;;;-0.17;100.00;100248.81;5052230;28;20186;-61
2022/12/20 04:25:17;;;;;;;12.45;8.25;;;;;;;0.19;100.00;100275.19;5052251;28;20185;-61
2022/12/20 04:27:43;;;;;;;18.00;8.93;;;;;;;0.11;100.00;100270.94;5052017;28;20178;-61
2022/12/20 04:30:10;;;;;;;15.50;9.00;;;;;;;-0.54;100.00;100177.47;5052179;28;20185;-60
2022/12/20 04:32:35;;;;;;;14.23;9.82;;;;;;;-0.58;100.00;100183.38;5052269;28;20247;-61
2022/12/20 04:35:01;;;;;;;19.27;10.43;;;;;;;-0.25;100.00;100231.84;5052136;28;20177;-61
2022/12/20 04:37:28;;;;;;;16.05;10.45;;;;;;;0.02;100.00;100287.00;5052478;28;20203;-61
2022/12/20 04:39:55;;;;;;;13.82;9.15;;;;;;;-0.02;100.00;100277.69;5052168;28;20215;-61
2022/12/20 04:42:21;;;;;;;14.38;8.43;;;;;;;-0.50;100.00;100182.56;5052700;28;20173;-60
2022/12/20 04:44:46;;;;;;;15.93;10.00;;;;;;;-0.16;100.00;100241.16;5052117;28;20656;-60
2022/12/20 04:47:12;;;;;;;15.48;10.32;;;;;;;-0.22;100.00;100241.16;5052551;28;20173;-61
2022/12/20 04:49:37;;;;;;;17.83;10.48;;;;;;;-0.28;100.00;100225.88;5049799;28;20226;-61
2022/12/20 04:54:46;;;;;;;14.65;8.65;;;;;;;-0.70;100.00;100180.81;5049804;28;20698;-60
2022/12/20 04:57:12;;;;;;;16.08;9.40;;;;;;;-0.61;100.00;100213.88;5049669;28;20178;-61
2022/12/20 04:59:38;;;;;;;12.40;8.57;;;;;;;-0.50;100.00;100237.66;5049929;28;20212;-60
2022/12/20 05:02:04;;;;;;;13.65;9.63;;;;;;;-0.81;100.00;100190.94;5050127;28;20219;-61
2022/12/20 05:04:29;;;;;;;12.60;8.52;;;;;;;-0.39;100.00;100258.88;5050151;28;20182;-61
2022/12/20 05:06:54;;;;;;;9.07;6.75;;;;;;;-0.94;100.00;100163.72;5049651;28;20284;-61
2022/12/20 05:09:20;;;;;;;13.40;7.88;;;;;;;-0.43;100.00;100255.47;5052893;28;20178;-61
2022/12/20 05:11:45;;;;;;;14.73;8.13;;;;;;;-0.59;100.00;100224.91;5053679;28;20212;-61
2022/12/20 05:14:11;;;;;;;8.52;6.55;;;;;;;-0.44;100.00;100265.63;5053455;28;20193;-60
2022/12/20 05:16:36;;;;;;;9.15;6.45;;;;;;;-0.56;100.00;100250.31;5053540;28;20253;-62
2022/12/20 05:19:03;;;;;;;9.50;6.63;;;;;;;-1.13;100.00;100146.72;5053274;28;20182;-60
2022/12/20 05:26:59;;;;;;;7.22;5.93;;;;;;;-0.59;100.00;100255.41;5054812;28;20192;-61
2022/12/20 05:29:25;;;;;;;6.60;5.68;;;;;;;-1.10;100.00;100169.59;5055696;28;20626;-60
2022/12/20 05:31:50;;;;;;;8.00;6.03;;;;;;;-1.11;100.00;100159.41;5052966;28;20300;-62
2022/12/20 05:34:16;;;;;;;9.95;6.43;;;;;;;-0.72;100.00;100261.28;5053772;28;20194;-62
2022/12/20 05:36:41;;;;;;;7.57;5.97;;;;;;;-0.65;100.00;100263.00;5053067;28;20205;-62
2022/12/20 05:39:07;;;;;;;9.52;6.00;;;;;;;-0.48;100.00;100269.03;5053165;28;20209;-61
2022/12/20 05:41:32;;;;;;;8.40;7.00;;;;;;;-0.54;100.00;100267.28;5032990;28;20214;-62
2022/12/20 05:43:58;;;;;;;10.98;6.93;;;;;;;-0.45;100.00;100252.09;5033082;28;20188;-62
2022/12/20 05:46:23;;;;;;;8.98;5.57;;;;;;;-0.50;100.00;100240.19;5032895;28;20186;-62
2022/12/20 05:48:49;;;;;;;8.00;5.68;;;;;;;-0.33;100.00;100266.53;5032764;28;20190;-62
2022/12/20 05:51:14;;;;;;;6.30;5.13;;;;;;;-0.42;100.00;100258.88;5052998;28;20182;-62
2022/12/20 05:53:39;;;;;;;8.68;5.38;;;;;;;-0.66;100.00;100190.97;5052794;28;20646;-62
2022/12/20 05:56:05;;;;;;;7.75;5.60;;;;;;;-0.21;100.00;100273.38;5052682;28;20217;-62
2022/12/20 05:58:31;;;;;;;7.22;5.72;;;;;;;-0.28;100.00;100258.94;5052737;28;20233;-62
2022/12/20 06:01:03;;;;;;;8.60;5.88;;;;;;;-0.61;100.00;100213.88;5052553;28;20680;-61
2022/12/20 06:03:29;;;;;;;7.78;5.88;;;;;;;-0.70;100.00;100235.00;5037565;28;20228;-61
2022/12/20 06:05:55;;;;;;;8.10;6.20;;;;;;;-0.90;100.00;100179.84;5032935;28;20233;-61
2022/12/20 06:08:22;;;;;;;8.73;6.00;;;;;;;-0.43;100.00;100244.47;5032475;28;20181;-62
2022/12/20 06:10:48;;;;;;;7.43;5.13;;;;;;;-0.61;100.00;100201.16;5032878;28;20276;-62
2022/12/20 06:13:13;;;;;;;10.63;5.85;;;;;;;-0.21;100.00;100273.38;5033357;28;20645;-62
2022/12/20 06:15:39;;;;;;;9.13;5.70;;;;;;;-0.65;100.00;100186.75;5032474;28;20240;-62
2022/12/20 06:18:05;;;;;;;8.60;6.43;;;;;;;-0.10;100.00;100251.38;5032171;28;20593;-62
2022/12/20 06:20:31;;;;;;;8.70;6.40;;;;;;;-0.22;100.00;100229.28;5032353;28;20184;-62
2022/12/20 06:22:57;;;;;;;9.40;6.55;;;;;;;-0.68;100.00;100154.56;5049958;28;20202;-61
2022/12/20 06:25:22;;;;;;;10.65;6.32;;;;;;;-0.69;100.00;100149.47;5054143;28;20204;-62
2022/12/20 06:27:48;;;;;;;10.57;6.68;;;;;;;-0.57;100.00;100190.16;5053641;28;20239;-62
2022/12/20 06:30:13;;;;;;;10.13;6.30;;;;;;;-0.34;100.00;100211.44;5054084;28;20265;-61
2022/12/20 06:32:39;;;;;;;7.78;6.40;;;;;;;0.08;100.00;100253.94;5054803;28;20177;-62
2022/12/20 06:35:05;;;;;;;8.70;6.32;;;;;;;0.19;100.00;100264.19;5053825;28;20706;-61
2022/12/20 06:37:31;;;;;;;9.48;6.35;;;;;;;0.16;100.00;100243.81;5054326;28;20185;-62
2022/12/20 06:39:57;;;;;;;9.57;6.78;;;;;;;-0.13;100.00;100197.94;5054311;28;20623;-62
2022/12/20 06:42:23;;;;;;;8.27;6.90;;;;;;;-0.42;100.00;100157.19;5054041;28;20580;-61
2022/12/20 06:44:48;;;;;;;12.60;8.07;;;;;;;0.11;100.00;100259.06;5053714;28;20170;-62
2022/12/20 06:47:14;;;;;;;13.20;8.18;;;;;;;0.31;100.00;100274.38;5053890;28;20178;-62
2022/12/20 06:49:39;;;;;;;8.55;6.95;;;;;;;-0.17;100.00;100156.38;5053850;28;20193;-62
2022/12/20 06:52:05;;;;;;;9.70;6.43;;;;;;;-0.11;100.00;100160.63;5053893;28;20681;-62
2022/12/20 06:54:30;;;;;;;8.07;5.68;;;;;;;0.01;97.32;100152.19;5053580;28;20165;-62
2022/12/20 06:56:55;;;;;;;10.63;6.32;;;;;;;0.59;95.06;100256.59;5053688;28;20197;-61
2022/12/20 06:59:21;;;;;;;8.30;5.47;;;;;;;0.33;92.13;100212.44;5053727;28;20166;-61
2022/12/20 07:01:46;;;;;;;6.88;5.90;;;;;;;0.33;92.29;100253.19;5053996;28;20173;-62
2022/12/20 07:04:12;;;;;;;7.43;4.85;;;;;;;-0.02;90.77;100157.25;5053941;28;20170;-62
2022/12/20 07:06:37;;;;;;;6.47;5.15;;;;;;;0.66;89.18;100263.38;5053856;28;20185;-61
2022/12/20 07:09:03;;;;;;;9.40;5.68;;;;;;;0.33;91.05;100192.09;5053264;28;20660;-62
2022/12/20 07:11:28;;;;;;;11.88;6.88;;;;;;;0.11;91.11;100152.19;5053798;28;20178;-62
2022/12/20 07:13:55;;;;;;;12.25;8.00;;;;;;;0.74;93.13;100245.56;5071710;28;20178;-61
2022/12/20 07:16:21;;;;;;;23.38;13.13;;;;;;;0.34;95.29;100168.31;5071140;28;20727;-61
2022/12/20 07:18:53;;;;;;;27.60;16.98;;;;;;;0.51;97.62;100174.25;5071406;28;20200;-62
2022/12/20 07:21:19;;;;;;;33.72;21.50;;;;;;;1.14;100.00;100268.47;5071192;28;20259;-62
2022/12/20 07:23:45;;;;;;;32.65;19.77;;;;;;;0.97;100.00;100209.03;5066788;28;20667;-61
2022/12/20 07:26:12;;;;;;;35.40;21.15;;;;;;;1.00;100.00;100203.06;5068592;28;20177;-61
2022/12/20 07:28:37;;;;;;;29.48;18.40;;;;;;;1.01;100.00;100182.66;5070364;28;20224;-61
2022/12/20 07:31:03;;;;;;;31.40;19.55;;;;;;;1.59;100.00;100255.56;5069190;28;20247;-61
2022/12/20 07:33:30;;;;;;;35.00;21.05;;;;;;;1.74;100.00;100268.28;5070353;28;20181;-61
2022/12/20 07:36:11;;;;;;;30.90;19.10;;;;;;;1.74;99.84;100247.88;5082151;28;20208;-62
2022/12/20 07:38:37;;;;;;;30.42;17.30;;;;;;;1.80;100.00;100260.59;5090730;28;20263;-62
2022/12/20 07:41:07;;;;;;;32.85;19.15;;;;;;;1.36;98.95;100203.78;5090943;28;20184;-61
2022/12/20 07:43:33;;;;;;;30.65;19.35;;;;;;;1.21;100.00;100247.19;5090717;28;20184;-62
2022/12/20 07:45:58;;;;;;;27.27;17.25;;;;;;;1.37;100.00;100246.31;5073319;28;20259;-61
2022/12/20 07:48:23;;;;;;;34.83;19.73;;;;;;;1.46;100.00;100233.53;5073023;28;20248;-62
2022/12/20 07:50:55;;;;;;;32.58;18.55;;;;;;;1.38;100.00;100183.41;5072748;28;20176;-62
2022/12/20 07:53:22;;;;;;;32.17;18.27;;;;;;;1.23;100.00;100140.97;5073491;28;20183;-61
2022/12/20 07:55:48;;;;;;;29.65;18.58;;;;;;;1.88;99.94;100228.25;5072843;28;20212;-61
2022/12/20 07:58:16;;;;;;;30.27;19.10;;;;;;;2.01;99.98;100235.00;5072598;28;20260;-62
2022/12/20 08:00:42;;;;;;;34.08;19.77;;;;;;;1.96;99.25;100185.69;5072604;28;20185;-62
2022/12/20 08:03:22;;;;;;;35.50;20.90;;;;;;;2.09;97.28;100187.28;5072276;28;20540;-61
2022/12/20 08:05:52;;;;;;;34.13;20.85;;;;;;;2.09;97.36;100173.66;5073437;28;20172;-62
2022/12/20 08:08:18;;;;;;;34.85;21.13;;;;;;;2.39;96.67;100215.16;5072431;28;20177;-61
2022/12/20 08:10:45;;;;;;;41.15;23.98;;;;;;;2.47;97.99;100231.28;5072576;28;20177;-62
2022/12/20 08:13:11;;;;;;;37.95;22.08;;;;;;;2.22;98.51;100181.22;5072226;28;20620;-61
2022/12/20 08:15:36;;;;;;;39.38;22.23;;;;;;;2.36;95.57;100178.56;5072594;28;20236;-62
2022/12/20 08:18:02;;;;;;;43.53;21.70;;;;;;;2.28;95.10;100186.28;5072771;28;20230;-61
2022/12/20 08:20:28;;;;;;;37.00;22.70;;;;;;;2.48;96.78;100210.00;5072901;28;20663;-62
2022/12/20 08:22:53;;;;;;;34.67;21.77;;;;;;;2.31;97.14;100176.06;5072412;28;20177;-62
2022/12/20 08:25:22;;;;;;;37.65;21.25;;;;;;;2.60;96.87;100209.03;5072009;28;20608;-62
2022/12/20 08:27:48;;;;;;;36.00;20.75;;;;;;;2.67;97.81;100214.09;5071999;28;20177;-61
2022/12/20 08:30:14;;;;;;;39.72;21.45;;;;;;;2.54;97.33;100163.97;5073056;28;20179;-61
2022/12/20 08:32:40;;;;;;;36.55;19.80;;;;;;;2.63;95.93;100148.53;5072341;28;20231;-61
2022/12/20 08:35:06;;;;;;;36.17;19.92;;;;;;;2.94;94.72;100157.63;5072122;28;20208;-61
2022/12/20 08:37:31;;;;;;;30.42;20.83;;;;;;;3.19;92.69;100204.22;5072214;28;20181;-61
2022/12/20 08:39:57;;;;;;;34.08;19.00;;;;;;;3.24;92.53;100203.31;5072239;28;20181;-61
2022/12/20 08:42:22;;;;;;;26.63;17.35;;;;;;;2.76;93.22;100099.03;5072583;28;20567;-61
2022/12/20 08:44:47;;;;;;;22.17;14.05;;;;;;;3.37;89.44;100184.41;5076821;28;20234;-61
2022/12/20 08:47:13;;;;;;;19.95;13.40;;;;;;;3.65;87.87;100202.81;5074303;28;20185;-61
2022/12/20 08:49:41;;;;;;;27.95;15.70;;;;;;;3.33;87.19;100125.63;5074372;28;20212;-61
2022/12/20 08:52:06;;;;;;;25.60;15.80;;;;;;;3.43;86.83;100134.84;5073938;28;20185;-61
2022/12/20 08:54:32;;;;;;;26.90;16.88;;;;;;;3.94;85.48;100191.34;5074023;28;20184;-61
2022/12/20 08:56:57;;;;;;;27.90;16.13;;;;;;;3.97;83.41;100180.22;5074161;28;20235;-61
2022/12/20 08:59:23;;;;;;;20.45;14.60;;;;;;;3.65;83.15;100126.91;5073980;28;20184;-61
2022/12/20 09:01:49;;;;;;;21.83;14.77;;;;;;;4.01;83.16;100174.16;5073657;28;20550;-61
2022/12/20 09:04:15;;;;;;;20.17;13.90;;;;;;;3.78;82.81;100125.84;5073579;28;20219;-62
2022/12/20 09:06:40;;;;;;;21.42;15.13;;;;;;;3.77;83.90;100115.63;5073867;28;20276;-61
2022/12/20 09:09:06;;;;;;;20.73;13.63;;;;;;;4.18;83.14;100170.50;5073462;28;20676;-61
2022/12/20 09:11:31;;;;;;;26.25;12.50;;;;;;;4.13;81.09;100181.66;5073710;28;20177;-61
2022/12/20 09:13:57;;;;;;;23.02;12.90;;;;;;;3.95;80.74;100123.03;5073920;28;20660;-61
2022/12/20 09:16:26;;;;;;;20.08;12.52;;;;;;;4.13;80.75;100141.53;5073238;28;20315;-61
2022/12/20 09:18:54;;;;;;;19.58;11.57;;;;;;;4.43;79.52;100165.84;5075000;28;20193;-62
2022/12/20 09:21:20;;;;;;;19.10;11.80;;;;;;;4.21;80.04;100119.19;5075848;28;20177;-61
2022/12/20 09:23:47;;;;;;;22.80;12.32;;;;;;;4.43;79.65;100142.78;5076107;28;20188;-62
2022/12/20 09:26:14;;;;;;;23.17;13.75;;;;;;;4.51;77.27;100148.63;5076007;28;20185;-61
2022/12/20 09:28:41;;;;;;;20.27;12.75;;;;;;;4.28;78.63;100094.34;5075601;28;20549;-61
2022/12/20 09:31:10;;;;;;;29.58;16.67;;;;;;;4.30;79.72;100107.97;5075518;28;20188;-61
2022/12/20 09:33:36;;;;;;;30.85;16.38;;;;;;;4.59;80.65;100152.75;5075352;28;20177;-61
2022/12/20 09:36:02;;;;;;;24.38;15.43;;;;;;;4.54;81.37;100122.97;5075262;28;20200;-61
2022/12/20 09:38:28;;;;;;;20.90;14.55;;;;;;;4.66;82.42;100144.06;5076081;28;20329;-61
2022/12/20 09:40:58;;;;;;;24.60;16.63;;;;;;;4.33;82.51;100115.63;5075266;28;20556;-61
2022/12/20 09:43:24;;;;;;;25.50;15.50;;;;;;;4.33;81.90;100098.53;5075795;28;20184;-61
2022/12/20 09:45:54;;;;;;;31.10;17.40;;;;;;;4.66;80.40;100123.56;5075107;28;20715;-62
2022/12/20 09:48:28;;;;;;;29.70;16.48;;;;;;;4.45;80.43;100080.38;5075114;28;20639;-61
2022/12/20 09:51:06;;;;;;;22.85;14.57;;;;;;;4.45;79.67;100057.31;5075444;28;20176;-61
2022/12/20 09:53:31;;;;;;;24.83;15.10;;;;;;;4.82;79.26;100119.84;5074157;28;20671;-62
2022/12/20 09:56:09;;;;;;;21.15;14.15;;;;;;;4.82;79.67;100114.72;5074925;28;20205;-61
2022/12/20 09:58:39;;;;;;;24.35;12.88;;;;;;;4.92;77.79;100105.16;5052699;28;20235;-61
2022/12/20 10:01:20;;;;;;;28.88;16.63;;;;;;;4.54;79.00;100038.38;5053632;28;20186;-61
2022/12/20 10:03:45;;;;;;;21.33;13.23;;;;;;;4.64;77.45;100047.56;5053075;28;20217;-61
2022/12/20 10:06:26;;;;;;;19.33;12.25;;;;;;;4.91;77.55;100099.16;5053226;28;20276;-61
2022/12/20 10:08:59;;;;;;;18.50;11.15;;;;;;;4.53;77.25;100037.50;5052208;28;20197;-61
2022/12/20 10:12:22;;;;;;;18.38;12.27;;;;;;;4.88;76.62;100081.28;5052832;28;20186;-61
2022/12/20 10:15:14;;;;;;;17.25;11.63;;;;;;;5.04;76.54;100089.50;5032590;28;20566;-61
2022/12/20 10:17:55;;;;;;;16.25;11.77;;;;;;;4.80;76.20;100059.22;5032974;28;20213;-61
2022/12/20 10:20:44;;;;;;;20.35;11.95;;;;;;;4.87;76.81;100077.03;5032399;28;20194;-61
2022/12/20 10:23:27;;;;;;;20.63;12.50;;;;;;;4.84;75.02;100066.81;5032727;28;20246;-62
2022/12/20 10:25:55;;;;;;;20.38;11.52;;;;;;;4.80;74.23;100044.69;5032792;28;20186;-62
2022/12/20 10:28:29;;;;;;;12.18;9.52;;;;;;;4.64;72.58;100007.41;5032060;28;20190;-62
2022/12/20 10:31:00;;;;;;;16.48;11.45;;;;;;;4.63;73.60;100005.72;5070041;28;20192;-61
2022/12/20 10:33:27;;;;;;;18.20;10.95;;;;;;;4.74;73.40;100006.34;5072503;28;20181;-62
2022/12/20 10:35:52;;;;;;;15.75;11.18;;;;;;;4.75;73.26;100049.06;5070600;28;20599;-61
2022/12/20 10:38:19;;;;;;;14.32;9.23;;;;;;;4.81;72.61;100043.81;5072017;28;20199;-62
2022/12/20 10:40:57;;;;;;;13.57;9.55;;;;;;;4.43;71.94;99969.34;5071823;28;20180;-62
2022/12/20 10:43:23;;;;;;;18.08;10.18;;;;;;;4.90;72.25;100025.66;5072602;28;20658;-62
2022/12/20 10:45:59;;;;;;;16.30;10.70;;;;;;;4.99;71.61;100034.88;5073064;28;20189;-62
2022/12/20 10:48:31;;;;;;;15.45;10.05;;;;;;;5.01;72.19;100015.22;5073986;28;20623;-63
2022/12/20 10:51:01;;;;;;;14.18;10.57;;;;;;;5.09;71.30;100031.28;5073862;28;20177;-62
2022/12/20 10:53:27;;;;;;;19.08;11.52;;;;;;;5.17;70.47;100017.41;5073827;28;20177;-62
2022/12/20 10:56:11;;;;;;;17.55;10.57;;;;;;;5.24;69.93;100020.69;5074536;28;20200;-63
2022/12/20 10:58:37;;;;;;;20.23;11.85;;;;;;;4.73;70.24;99927.72;5073358;28;20605;-62
2022/12/20 11:01:17;;;;;;;15.40;10.27;;;;;;;5.25;71.37;100002.69;5073668;28;20169;-62
2022/12/20 11:03:55;;;;;;;17.75;11.35;;;;;;;5.42;72.21;100005.72;5073411;28;20267;-62
2022/12/20 11:06:25;;;;;;;15.43;11.02;;;;;;;5.53;71.13;100011.44;5072980;28;20176;-63
2022/12/20 11:08:51;;;;;;;19.20;10.75;;;;;;;5.21;70.90;99949.75;5073784;28;20184;-62
2022/12/20 11:11:16;;;;;;;18.58;11.98;;;;;;;5.65;70.62;100002.63;5073485;28;20647;-62
2022/12/20 11:13:43;;;;;;;15.93;10.73;;;;;;;5.62;69.44;99980.44;5073381;28;20192;-62
2022/12/20 11:16:27;;;;;;;18.02;11.82;;;;;;;5.61;69.51;99988.19;5073377;28;20200;-63
2022/12/20 11:19:20;;;;;;;18.80;11.65;;;;;;;5.53;70.82;99972.94;5071816;28;20198;-62
2022/12/20 11:21:54;;;;;;;16.67;11.73;;;;;;;5.52;70.55;99961.00;5073054;28;20248;-62
2022/12/20 11:24:47;;;;;;;18.23;10.85;;;;;;;5.60;70.41;99971.91;5072910;28;20197;-62
2022/12/20 11:27:34;;;;;;;20.10;12.50;;;;;;;5.28;72.34;99933.34;5073035;28;20646;-62
2022/12/20 11:30:15;;;;;;;16.90;11.40;;;;;;;5.58;69.57;99960.84;5073634;28;20173;-62
2022/12/20 11:33:01;;;;;;;66.20;37.17;;;;;;;5.60;68.76;99953.94;5073931;28;20173;-63
2022/12/20 11:35:27;;;;;;;14.68;11.07;;;;;;;5.57;69.00;99948.91;5074149;28;20205;-63